Time;durP1;ratioP1;P1;durP2;ratioP2;P2;SDS_P1;SDS_P2;PMS_P1;PMS_P2;Temp;Humidity;BMP_temperature;BMP_pressure;BME280_temperature;BME280_humidity;BME280_pressure;Samples;Min_cycle;Max_cycle;Signal;HPM_P1;HPM_P2
2022/04/28 00:03:31;;;;;;;11.85;3.45;;;;;;;8.32;100.00;102756.44;10162966;28;20042;-63
2022/04/28 00:08:28;;;;;;;8.55;3.10;;;;;;;8.20;100.00;102754.66;10193449;28;20077;-62
2022/04/28 00:13:26;;;;;;;11.27;3.85;;;;;;;8.14;100.00;102749.38;10160818;28;20042;-62
2022/04/28 00:18:23;;;;;;;18.30;3.95;;;;;;;8.17;100.00;102744.28;10159139;28;20495;-63
2022/04/28 00:23:19;;;;;;;11.32;3.20;;;;;;;8.12;100.00;102749.66;10160791;28;20046;-63
2022/04/28 00:28:20;;;;;;;12.75;4.22;;;;;;;8.07;100.00;102749.56;10197429;28;20077;-63
2022/04/28 00:33:16;;;;;;;10.55;3.35;;;;;;;7.99;100.00;102752.75;10169843;28;20097;-62
2022/04/28 00:38:14;;;;;;;16.92;4.68;;;;;;;7.94;100.00;102756.22;10194107;28;20125;-63
2022/04/28 00:43:19;;;;;;;13.65;3.70;;;;;;;7.76;100.00;102762.75;10157729;28;20046;-62
2022/04/28 00:53:49;;;;;;;9.40;3.63;;;;;;;7.67;100.00;102750.63;10160899;28;20046;-62
2022/04/28 00:58:48;;;;;;;;;;;;;;;7.62;100.00;102753.28;10167578;28;20097;-63
2022/04/28 01:03:46;;;;;;;14.90;4.47;;;;;;;7.51;100.00;102757.72;10161916;28;20360;-63
2022/04/28 01:08:42;;;;;;;12.05;4.13;;;;;;;7.41;100.00;102762.19;10165712;28;20042;-63
2022/04/28 01:13:39;;;;;;;12.50;4.03;;;;;;;7.36;100.00;102766.47;10160608;28;20077;-62
2022/04/28 01:18:35;;;;;;;11.23;4.22;;;;;;;7.26;100.00;102763.53;10165710;28;20117;-62
2022/04/28 01:23:33;;;;;;;11.43;4.22;;;;;;;7.28;100.00;102752.41;10159259;28;20534;-62
2022/04/28 01:28:31;;;;;;;15.52;5.00;;;;;;;7.24;100.00;102760.28;10156887;28;20046;-64
2022/04/28 01:33:27;;;;;;;13.70;4.40;;;;;;;7.16;100.00;102764.19;10158685;28;20069;-63
2022/04/28 01:38:24;;;;;;;16.58;4.53;;;;;;;7.19;100.00;102771.03;10194429;28;20061;-62
2022/04/28 01:43:20;;;;;;;16.25;4.53;;;;;;;7.17;100.00;102773.16;10180758;28;20050;-63
2022/04/28 01:48:17;;;;;;;11.73;5.00;;;;;;;7.05;100.00;102769.69;10194094;28;20073;-62
2022/04/28 01:58:28;;;;;;;12.05;4.72;;;;;;;7.03;100.00;102760.94;10191673;28;20079;-63
2022/04/28 02:03:24;;;;;;;10.80;4.80;;;;;;;6.89;100.00;102761.28;10194396;28;20038;-63
2022/04/28 02:08:21;;;;;;;13.68;4.50;;;;;;;6.90;100.00;102762.09;10192276;28;20069;-62
2022/04/28 02:13:18;;;;;;;12.20;4.40;;;;;;;6.88;100.00;102758.78;10192872;28;20508;-63
2022/04/28 02:18:14;;;;;;;12.77;4.72;;;;;;;6.83;100.00;102759.50;10208518;28;20104;-62
2022/04/28 02:23:11;;;;;;;10.75;4.65;;;;;;;6.78;100.00;102759.41;10194024;28;20046;-62
2022/04/28 02:28:08;;;;;;;14.30;5.47;;;;;;;6.77;100.00;102752.31;10171052;28;20047;-62
2022/04/28 02:33:10;;;;;;;13.00;4.93;;;;;;;6.72;100.00;102752.22;10154112;28;20078;-62
2022/04/28 02:38:07;;;;;;;8.38;4.93;;;;;;;6.66;100.00;102755.88;10192577;28;20133;-62
2022/04/28 02:43:04;;;;;;;9.02;5.00;;;;;;;6.66;100.00;102750.44;10192886;28;20058;-63
2022/04/28 02:48:00;;;;;;;16.65;6.22;;;;;;;6.72;100.00;102749.50;10192722;28;20116;-63
2022/04/28 02:52:57;;;;;;;22.55;9.30;;;;;;;6.72;100.00;102754.94;10177642;28;20058;-62
2022/04/28 02:57:53;;;;;;;22.83;11.02;;;;;;;6.68;100.00;102753.75;10192284;28;20070;-63
2022/04/28 03:02:55;;;;;;;21.83;10.65;;;;;;;6.75;100.00;102754.44;10193107;28;20125;-63
2022/04/28 03:13:07;;;;;;;24.98;12.25;;;;;;;6.62;100.00;102754.75;10192576;28;20120;-62
2022/04/28 03:18:04;;;;;;;24.58;12.20;;;;;;;6.61;100.00;102753.06;10192497;28;20062;-62
2022/04/28 03:23:00;;;;;;;23.83;11.77;;;;;;;6.46;100.00;102746.28;10157601;28;20424;-63
2022/04/28 03:27:57;;;;;;;25.73;12.02;;;;;;;6.39;100.00;102759.16;10199226;28;20177;-63
2022/04/28 03:32:53;;;;;;;21.33;11.43;;;;;;;6.38;100.00;102749.34;10200344;28;20073;-62
2022/04/28 03:37:49;;;;;;;24.50;12.30;;;;;;;6.31;100.00;102756.81;10160645;28;20049;-61
2022/04/28 03:42:46;;;;;;;24.83;12.65;;;;;;;6.23;100.00;102762.63;10159719;28;20080;-62
2022/04/28 03:47:44;;;;;;;23.23;11.57;;;;;;;6.18;100.00;102757.91;10196837;28;20077;-63
2022/04/28 03:52:40;;;;;;;25.77;11.82;;;;;;;6.16;100.00;102756.50;10199329;28;20129;-62
2022/04/28 03:57:37;;;;;;;25.40;12.18;;;;;;;6.14;100.00;102764.06;10198144;28;20073;-62
2022/04/28 04:02:33;;;;;;;29.70;12.75;;;;;;;6.11;100.00;102768.88;10163576;28;20122;-63
2022/04/28 04:07:32;;;;;;;26.58;13.38;;;;;;;6.11;100.00;102771.59;10169409;28;20109;-63
2022/04/28 04:12:29;;;;;;;28.95;13.30;;;;;;;6.08;100.00;102771.25;10157987;28;20046;-63
2022/04/28 04:17:25;;;;;;;29.85;13.85;;;;;;;6.06;100.00;102779.66;10191933;28;20088;-62
2022/04/28 04:22:22;;;;;;;28.33;13.88;;;;;;;6.07;100.00;102781.28;10158500;28;20050;-63
2022/04/28 04:27:20;;;;;;;22.58;13.50;;;;;;;6.09;100.00;102783.78;10191929;28;20137;-62
2022/04/28 04:32:24;;;;;;;27.20;15.68;;;;;;;6.10;100.00;102786.25;10165931;28;20100;-62
2022/04/28 04:37:24;;;;;;;28.33;14.00;;;;;;;6.26;100.00;102794.75;10188643;28;20077;-62
2022/04/28 04:42:20;;;;;;;32.55;16.27;;;;;;;6.27;100.00;102785.53;10157945;28;20101;-62
2022/04/28 04:47:17;;;;;;;28.02;15.10;;;;;;;6.38;100.00;102797.44;10185165;28;20413;-63
2022/04/28 04:52:13;;;;;;;30.95;15.30;;;;;;;6.36;100.00;102797.69;10157066;28;20632;-62
2022/04/28 04:57:09;;;;;;;31.95;13.95;;;;;;;6.30;100.00;102801.34;10179364;28;20501;-62
2022/04/28 05:02:06;;;;;;;26.20;15.05;;;;;;;6.47;100.00;102807.69;10156684;28;20070;-64
2022/04/28 05:07:03;;;;;;;24.95;14.02;;;;;;;6.44;100.00;102812.78;10178180;28;20054;-63
2022/04/28 05:11:59;;;;;;;29.40;15.82;;;;;;;6.44;100.00;102813.63;10156658;28;20054;-62
2022/04/28 05:16:57;;;;;;;29.85;13.60;;;;;;;6.56;100.00;102815.50;10169642;28;20101;-62
2022/04/28 05:21:56;;;;;;;23.67;13.38;;;;;;;6.60;100.00;102819.38;10155630;28;20082;-62
2022/04/28 05:26:53;;;;;;;25.73;13.98;;;;;;;6.60;100.00;102822.13;10167659;28;20054;-62
2022/04/28 05:31:49;;;;;;;28.73;13.15;;;;;;;6.69;100.00;102826.09;10155618;28;20046;-63
2022/04/28 05:36:46;;;;;;;21.45;11.18;;;;;;;6.78;100.00;102835.53;10185580;28;20496;-62
2022/04/28 05:41:48;;;;;;;26.23;10.98;;;;;;;6.81;100.00;102829.63;10190233;28;20050;-63
2022/04/28 05:46:45;;;;;;;18.20;10.02;;;;;;;6.91;100.00;102829.81;10183881;28;20589;-63
2022/04/28 05:51:41;;;;;;;20.67;11.07;;;;;;;7.04;100.00;102820.56;10177548;28;20054;-62
2022/04/28 05:56:38;;;;;;;17.90;8.65;;;;;;;7.15;100.00;102824.31;10183563;28;20492;-62
2022/04/28 06:01:35;;;;;;;18.95;8.15;;;;;;;7.27;100.00;102825.06;10194015;28;20045;-63
2022/04/28 06:06:32;;;;;;;19.30;6.72;;;;;;;7.48;100.00;102828.16;10177817;28;20049;-62
2022/04/28 06:11:29;;;;;;;20.33;7.35;;;;;;;7.51;100.00;102833.13;10154921;28;20440;-63
2022/04/28 06:16:25;;;;;;;19.25;6.57;;;;;;;7.66;100.00;102836.13;10180814;28;20077;-63
2022/04/28 06:21:22;;;;;;;12.80;5.13;;;;;;;7.78;100.00;102839.56;10182089;28;20074;-63
2022/04/28 06:26:18;;;;;;;12.68;5.05;;;;;;;7.85;100.00;102844.03;10180342;28;20050;-63
2022/04/28 06:31:14;;;;;;;13.40;5.05;;;;;;;7.87;100.00;102844.63;10178750;28;20564;-62
2022/04/28 06:36:11;;;;;;;12.07;4.28;;;;;;;7.94;100.00;102848.00;10179047;28;20134;-62
2022/04/28 06:41:10;;;;;;;15.07;4.15;;;;;;;8.06;100.00;102845.19;10165054;28;20456;-62
2022/04/28 06:46:13;;;;;;;11.88;4.10;;;;;;;8.17;100.00;102852.47;10178044;28;20516;-63
2022/04/28 06:51:10;;;;;;;15.65;4.43;;;;;;;8.29;100.00;102849.63;10164255;28;20051;-63
2022/04/28 06:56:06;;;;;;;12.55;3.88;;;;;;;8.36;100.00;102851.09;10181047;28;20103;-63
2022/04/28 07:01:04;;;;;;;10.90;3.00;;;;;;;8.38;100.00;102853.59;10171737;28;20078;-62
2022/04/28 07:06:00;;;;;;;10.98;3.65;;;;;;;8.51;100.00;102853.22;10178399;28;20631;-63
2022/04/28 07:10:57;;;;;;;10.57;3.90;;;;;;;8.61;100.00;102858.84;10160494;28;20142;-62
2022/04/28 07:15:54;;;;;;;8.95;3.28;;;;;;;8.67;100.00;102862.44;10165206;28;20138;-62
2022/04/28 07:20:50;;;;;;;11.63;3.53;;;;;;;8.85;100.00;102870.31;10160167;28;20128;-63
2022/04/28 07:25:47;;;;;;;16.98;3.90;;;;;;;8.97;100.00;102869.38;10182604;28;20423;-61
2022/04/28 07:30:43;;;;;;;9.48;3.20;;;;;;;9.00;100.00;102866.94;10198402;28;20058;-63
2022/04/28 07:35:40;;;;;;;8.20;3.08;;;;;;;9.20;100.00;102871.00;10181769;28;20038;-63
2022/04/28 07:40:37;;;;;;;13.40;3.70;;;;;;;9.22;100.00;102880.59;10192230;28;20104;-63
2022/04/28 07:45:34;;;;;;;9.57;4.00;;;;;;;9.37;100.00;102882.66;10180376;28;20069;-63
2022/04/28 07:50:30;;;;;;;12.10;3.33;;;;;;;9.51;100.00;102883.06;10173262;28;20042;-63
2022/04/28 07:55:27;;;;;;;9.02;2.97;;;;;;;9.62;100.00;102884.81;10178491;28;20128;-63
2022/04/28 08:00:24;;;;;;;14.30;3.75;;;;;;;9.82;100.00;102884.19;10163004;28;20505;-63
2022/04/28 08:05:20;;;;;;;8.95;3.40;;;;;;;10.02;100.00;102882.72;10174904;28;20065;-63
2022/04/28 08:10:17;;;;;;;9.57;3.35;;;;;;;10.13;100.00;102873.50;10158136;28;20476;-63
2022/04/28 08:15:13;;;;;;;10.35;3.30;;;;;;;10.22;100.00;102882.88;10163154;28;20081;-63
2022/04/28 08:20:10;;;;;;;11.43;3.75;;;;;;;10.36;100.00;102887.94;10158498;28;20081;-63
2022/04/28 08:25:08;;;;;;;11.02;3.58;;;;;;;10.50;100.00;102886.38;10175502;28;20128;-63
2022/04/28 08:30:05;;;;;;;10.82;3.92;;;;;;;10.61;100.00;102896.28;10198080;28;20663;-63
2022/04/28 08:35:01;;;;;;;10.27;4.20;;;;;;;10.72;100.00;102892.53;10188576;28;20054;-64
2022/04/28 08:39:58;;;;;;;11.73;4.32;;;;;;;10.82;100.00;102890.94;10198230;28;20054;-62
2022/04/28 08:44:59;;;;;;;13.30;4.03;;;;;;;11.06;100.00;102897.59;10179784;28;20468;-63
2022/04/28 08:49:56;;;;;;;11.00;4.32;;;;;;;11.23;100.00;102891.06;10196648;28;20077;-66
2022/04/28 08:54:54;;;;;;;15.63;6.03;;;;;;;11.41;100.00;102890.56;10174216;28;20050;-62
2022/04/28 08:59:51;;;;;;;7.60;4.32;;;;;;;11.56;100.00;102889.81;10192331;28;20070;-63
2022/04/28 09:04:48;;;;;;;12.10;4.75;;;;;;;11.51;100.00;102896.09;10170451;28;20050;-62
2022/04/28 09:09:44;;;;;;;10.27;4.55;;;;;;;11.58;100.00;102896.66;10179147;28;20766;-63
2022/04/28 09:14:46;;;;;;;13.48;5.05;;;;;;;11.78;100.00;102889.53;10169566;28;20571;-63
2022/04/28 09:19:42;;;;;;;28.45;6.63;;;;;;;11.82;100.00;102887.91;10161406;28;20113;-63
2022/04/28 09:24:44;;;;;;;12.18;5.20;;;;;;;12.22;100.00;102891.75;10168486;28;20471;-63
2022/04/28 09:29:43;;;;;;;;;;;;;;;12.41;98.78;102890.06;10160465;28;20057;-63
2022/04/28 09:34:48;;;;;;;11.80;4.90;;;;;;;12.60;100.00;102884.84;10169873;28;19975;-62
2022/04/28 09:45:01;;;;;;;9.25;4.68;;;;;;;13.18;99.12;102881.59;10181861;28;20085;-63
2022/04/28 09:49:58;;;;;;;13.18;5.13;;;;;;;13.40;93.85;102877.66;10191703;28;20121;-63
2022/04/28 09:54:56;;;;;;;10.52;5.00;;;;;;;14.02;87.16;102884.34;10169809;28;20457;-62
2022/04/28 09:59:55;;;;;;;10.90;5.18;;;;;;;14.64;84.46;102872.72;10181995;28;20081;-62
2022/04/28 10:04:53;;;;;;;10.02;5.03;;;;;;;15.59;77.01;102873.66;10168960;28;20667;-63
2022/04/28 10:09:52;;;;;;;9.90;5.07;;;;;;;16.33;65.62;102881.25;10169586;28;20497;-63
2022/04/28 10:14:49;;;;;;;11.88;4.57;;;;;;;17.39;62.00;102880.19;10168355;28;20078;-63
2022/04/28 10:19:52;;;;;;;9.80;5.10;;;;;;;17.28;61.08;102877.97;10193620;28;20062;-63
2022/04/28 10:35:54;;;;;;;6.57;3.97;;;;;;;19.05;49.24;102859.78;10168150;28;20472;-63
2022/04/28 10:41:07;;;;;;;10.88;4.72;;;;;;;19.66;48.41;102861.75;10162284;28;20042;-63
2022/04/28 10:46:09;;;;;;;10.15;4.60;;;;;;;20.01;45.05;102861.72;10186327;28;20162;-62
2022/04/28 10:51:10;;;;;;;8.20;4.75;;;;;;;19.42;43.98;102863.03;10201857;28;20115;-63
2022/04/28 10:56:09;;;;;;;9.90;4.63;;;;;;;18.05;46.14;102869.47;10200904;28;20084;-64
2022/04/28 11:01:06;;;;;;;10.60;4.75;;;;;;;18.99;46.53;102861.06;10196462;28;20078;-64
2022/04/28 11:06:14;;;;;;;11.10;4.85;;;;;;;20.31;44.63;102855.06;10185003;28;20046;-63
2022/04/28 11:11:12;;;;;;;8.82;4.15;;;;;;;20.80;41.46;102849.94;10181179;28;20046;-64
2022/04/28 11:16:12;;;;;;;10.55;3.78;;;;;;;22.17;43.94;102844.66;10185960;28;20058;-63
2022/04/28 11:21:09;;;;;;;13.65;4.13;;;;;;;21.95;39.10;102859.78;10187649;28;20142;-63
2022/04/28 11:26:06;;;;;;;8.18;4.10;;;;;;;21.57;37.03;102854.47;10182315;28;20081;-63
2022/04/28 11:31:14;;;;;;;10.82;3.50;;;;;;;22.02;40.73;102854.50;10160221;28;20137;-63
2022/04/28 11:36:41;;;;;;;;;;;;;;;21.74;37.92;102842.34;10169180;28;20540;-63
2022/04/28 11:41:41;;;;;;;9.98;4.43;;;;;;;21.79;36.04;102844.91;10151627;28;19976;-63
2022/04/28 11:46:50;;;;;;;9.27;4.18;;;;;;;21.12;35.86;102850.41;10188014;28;20042;-62
2022/04/28 11:51:47;;;;;;;8.40;4.05;;;;;;;21.00;36.57;102841.97;10184527;28;20101;-64
2022/04/28 11:56:45;;;;;;;8.52;4.20;;;;;;;20.45;37.04;102848.50;10188553;28;20076;-63
2022/04/28 12:01:43;;;;;;;14.43;4.45;;;;;;;20.43;37.28;102845.22;10198804;28;20100;-63
2022/04/28 12:06:46;;;;;;;9.02;4.97;;;;;;;18.89;38.38;102844.72;10198158;28;20511;-63
2022/04/28 12:22:43;;;;;;;11.23;5.13;;;;;;;18.53;42.38;102842.97;10158173;28;20125;-63
2022/04/28 12:27:46;;;;;;;10.43;4.30;;;;;;;19.94;40.10;102831.69;10164129;28;20050;-63
2022/04/28 12:32:50;;;;;;;8.52;4.30;;;;;;;19.97;37.52;102844.88;10161739;28;20088;-63
2022/04/28 12:37:53;;;;;;;12.75;6.35;;;;;;;18.37;43.71;102850.09;10196681;28;20244;-63
2022/04/28 12:42:50;;;;;;;12.82;5.50;;;;;;;17.66;43.82;102848.00;10197016;28;20100;-63
2022/04/28 12:47:50;;;;;;;11.43;5.25;;;;;;;17.41;46.98;102842.00;10195384;28;20050;-63
2022/04/28 12:52:47;;;;;;;9.77;4.80;;;;;;;17.60;48.55;102844.56;10168119;28;20105;-63
2022/04/28 12:57:45;;;;;;;12.27;6.32;;;;;;;16.93;48.35;102848.03;10193825;28;20504;-63
2022/04/28 13:02:47;;;;;;;11.50;6.13;;;;;;;16.57;51.08;102840.50;10156745;28;20085;-63
2022/04/28 13:07:45;;;;;;;13.48;6.70;;;;;;;16.34;56.47;102842.31;10187028;28;20137;-62
2022/04/28 13:12:41;;;;;;;13.38;6.28;;;;;;;16.59;57.56;102838.25;10156167;28;20116;-63
2022/04/28 13:17:38;;;;;;;15.02;5.25;;;;;;;17.19;50.87;102830.88;10192404;28;20054;-63
2022/04/28 13:22:34;;;;;;;9.48;5.10;;;;;;;17.73;48.83;102819.91;10195849;28;20050;-63
2022/04/28 13:27:31;;;;;;;7.28;4.50;;;;;;;17.67;45.71;102813.69;10164060;28;20113;-63
2022/04/28 13:32:27;;;;;;;12.18;4.55;;;;;;;17.48;47.82;102815.84;10170661;28;20416;-63
2022/04/28 13:37:24;;;;;;;8.93;4.75;;;;;;;17.56;48.83;102804.03;10190689;28;20463;-62
2022/04/28 13:42:20;;;;;;;12.85;6.10;;;;;;;18.00;51.08;102802.38;10195554;28;20069;-63
2022/04/28 13:47:17;;;;;;;11.52;6.20;;;;;;;17.32;51.60;102815.41;10198323;28;20041;-63
2022/04/28 13:52:13;;;;;;;12.02;5.93;;;;;;;17.43;55.40;102806.53;10163649;28;20161;-64
2022/04/28 13:57:10;;;;;;;12.00;5.97;;;;;;;17.75;54.23;102798.28;10187737;28;20054;-63
2022/04/28 14:02:07;;;;;;;12.30;5.40;;;;;;;17.62;55.16;102808.31;10154888;28;20497;-62
2022/04/28 14:07:10;;;;;;;11.13;4.97;;;;;;;18.20;52.99;102796.28;10183047;28;20491;-63
2022/04/28 14:12:07;;;;;;;7.75;4.53;;;;;;;18.72;49.18;102795.59;10152704;28;20097;-63
2022/04/28 14:17:06;;;;;;;11.32;3.80;;;;;;;18.63;48.16;102792.81;10178936;28;20058;-62
2022/04/28 14:22:04;;;;;;;12.48;3.40;;;;;;;18.30;49.42;102801.50;10154260;28;20074;-62
2022/04/28 14:27:00;;;;;;;11.88;3.85;;;;;;;17.97;48.00;102803.00;10171889;28;20081;-66
2022/04/28 14:31:58;;;;;;;9.25;3.42;;;;;;;17.77;47.42;102793.25;10153900;28;20401;-65
2022/04/28 14:36:54;;;;;;;9.73;3.83;;;;;;;17.30;53.05;102799.13;10164110;28;20567;-65
2022/04/28 14:41:52;;;;;;;8.30;2.45;;;;;;;17.44;55.21;102796.28;10153669;28;20093;-66
2022/04/28 14:47:09;;;;;;;6.75;2.28;;;;;;;17.30;51.82;102796.34;10158631;28;20125;-66
2022/04/28 14:52:20;;;;;;;13.13;3.42;;;;;;;17.00;56.01;102803.41;10153497;28;20077;-65
2022/04/28 14:57:17;;;;;;;7.90;2.17;;;;;;;17.17;56.66;102798.06;10187260;28;20495;-65
2022/04/28 15:02:13;;;;;;;9.20;1.73;;;;;;;17.36;54.14;102800.63;10168714;28;20263;-66
2022/04/28 15:07:10;;;;;;;7.07;1.60;;;;;;;17.38;52.05;102808.59;10184397;28;20046;-65
2022/04/28 15:12:07;;;;;;;10.00;2.05;;;;;;;17.35;50.87;102810.03;10153164;28;20519;-66
2022/04/28 15:17:05;;;;;;;10.60;1.80;;;;;;;17.51;48.48;102801.38;10177897;28;20081;-66
2022/04/28 15:22:03;;;;;;;7.25;1.70;;;;;;;17.65;48.45;102797.41;10160942;28;20050;-66
2022/04/28 15:26:59;;;;;;;7.68;1.95;;;;;;;17.33;48.10;102798.47;10166304;28;20042;-66
2022/04/28 15:31:56;;;;;;;8.90;1.52;;;;;;;17.60;48.59;102793.97;10160498;28;20073;-66
2022/04/28 15:36:52;;;;;;;9.27;1.90;;;;;;;17.58;47.46;102790.69;10190625;28;20077;-65
2022/04/28 15:41:49;;;;;;;9.07;1.90;;;;;;;17.58;47.00;102812.81;10190349;28;20142;-65
2022/04/28 15:46:46;;;;;;;11.90;1.45;;;;;;;17.73;44.94;102803.31;10188999;28;20053;-65
2022/04/28 15:51:44;;;;;;;5.65;1.42;;;;;;;17.85;44.30;102796.09;10184356;28;20047;-65
2022/04/28 15:56:41;;;;;;;6.97;2.33;;;;;;;17.92;41.85;102805.91;10188297;28;20169;-65
2022/04/28 16:01:40;;;;;;;8.32;1.60;;;;;;;18.30;39.45;102801.50;10178436;28;20046;-66
2022/04/28 16:06:37;;;;;;;6.03;1.38;;;;;;;18.63;37.76;102803.88;10186766;28;20436;-65
2022/04/28 16:11:34;;;;;;;5.97;1.40;;;;;;;18.83;36.44;102804.47;10167695;28;20124;-65
2022/04/28 16:16:30;;;;;;;8.13;1.30;;;;;;;19.25;35.65;102802.03;10185599;28;20050;-66
2022/04/28 16:21:29;;;;;;;8.57;1.70;;;;;;;20.01;34.61;102800.63;10158216;28;20516;-66
2022/04/28 16:26:26;;;;;;;6.50;1.20;;;;;;;19.43;34.40;102802.84;10166508;28;20042;-65
2022/04/28 16:31:23;;;;;;;7.68;1.25;;;;;;;20.57;32.71;102806.94;10157122;28;20050;-65
2022/04/28 16:36:20;;;;;;;12.07;1.83;;;;;;;20.64;30.74;102812.78;10184382;28;20053;-65
2022/04/28 16:41:17;;;;;;;9.10;1.90;;;;;;;21.55;30.31;102813.06;10197756;28;20500;-65
2022/04/28 16:46:13;;;;;;;5.47;1.45;;;;;;;21.27;29.27;102818.34;10184000;28;20463;-65
2022/04/28 16:51:10;;;;;;;8.02;1.50;;;;;;;21.80;29.27;102810.34;10185562;28;20057;-65
2022/04/28 16:56:07;;;;;;;7.80;1.67;;;;;;;21.84;28.48;102825.22;10181576;28;20042;-65
2022/04/28 17:01:03;;;;;;;6.50;1.73;;;;;;;21.79;28.14;102817.06;10172258;28;20547;-66
2022/04/28 17:06:00;;;;;;;5.78;1.52;;;;;;;20.94;29.92;102818.31;10180105;28;20057;-65
2022/04/28 17:10:57;;;;;;;4.85;1.30;;;;;;;20.42;32.27;102821.34;10159687;28;20074;-65
2022/04/28 17:15:55;;;;;;;10.50;1.80;;;;;;;20.17;32.78;102832.25;10177772;28;20060;-65
2022/04/28 17:20:52;;;;;;;7.05;2.10;;;;;;;19.50;33.81;102834.50;10156169;28;20054;-65
2022/04/28 17:25:48;;;;;;;13.73;1.88;;;;;;;19.33;34.30;102831.72;10176174;28;20698;-65
2022/04/28 17:30:45;;;;;;;4.93;1.38;;;;;;;18.33;33.75;102833.28;10155325;28;20089;-65
2022/04/28 17:35:41;;;;;;;10.25;2.08;;;;;;;17.93;36.52;102840.75;10166482;28;20058;-65
2022/04/28 17:40:38;;;;;;;7.68;1.30;;;;;;;16.85;39.03;102848.78;10154585;28;20062;-65
2022/04/28 17:45:35;;;;;;;10.82;1.70;;;;;;;16.27;41.15;102852.09;10157309;28;20046;-66
2022/04/28 17:50:33;;;;;;;6.55;1.80;;;;;;;15.71;42.91;102852.00;10154437;28;20057;-67
2022/04/28 18:00:45;;;;;;;17.58;1.90;;;;;;;15.52;44.83;102854.72;10154297;28;20050;-66
2022/04/28 18:05:42;;;;;;;8.20;2.50;;;;;;;15.32;47.67;102855.88;10176358;28;20057;-66
2022/04/28 18:10:39;;;;;;;8.18;2.10;;;;;;;15.27;50.55;102864.22;10193926;28;20046;-65
2022/04/28 18:15:36;;;;;;;13.43;3.97;;;;;;;15.06;53.98;102862.84;10183645;28;20072;-65
2022/04/28 18:20:33;;;;;;;9.02;1.95;;;;;;;15.06;58.80;102866.44;10190156;28;20445;-65
2022/04/28 18:25:30;;;;;;;11.23;2.38;;;;;;;14.69;65.99;102864.41;10174053;28;20530;-65
2022/04/28 18:30:26;;;;;;;16.33;3.78;;;;;;;14.54;69.27;102868.16;10193563;28;20566;-66
2022/04/28 18:44:26;;;;;;;15.93;3.78;;;;;;;14.47;71.26;102868.47;10193929;28;20053;-65
2022/04/28 18:45:55;;;;;;;13.57;4.10;;;;;;;14.07;76.41;102887.03;10176449;28;20077;-65
2022/04/28 18:50:52;;;;;;;14.88;2.45;;;;;;;13.93;79.29;102891.56;10154931;28;20054;-66
2022/04/28 18:55:48;;;;;;;12.20;3.45;;;;;;;13.79;85.15;102907.06;10181900;28;20042;-65
2022/04/28 19:00:45;;;;;;;23.05;3.00;;;;;;;13.47;91.55;102922.13;10160934;28;20120;-65
2022/04/28 19:05:41;;;;;;;7.55;1.95;;;;;;;13.40;94.42;102921.63;10175195;28;20569;-66
2022/04/28 19:10:38;;;;;;;7.32;2.67;;;;;;;13.17;97.16;102923.88;10160866;28;20062;-65
2022/04/28 19:15:35;;;;;;;13.52;2.65;;;;;;;13.06;98.88;102922.28;10180969;28;20085;-65
2022/04/28 19:20:31;;;;;;;10.10;1.90;;;;;;;12.94;100.00;102924.53;10197145;28;20504;-66
2022/04/28 19:25:32;;;;;;;13.13;2.67;;;;;;;12.81;100.00;102921.28;10179866;28;20512;-67
2022/04/28 19:30:29;;;;;;;8.90;1.92;;;;;;;12.56;100.00;102930.41;10195924;28;20081;-66
2022/04/28 19:35:25;;;;;;;10.10;2.83;;;;;;;12.39;100.00;102936.19;10179205;28;20100;-66
2022/04/28 19:40:22;;;;;;;13.18;3.40;;;;;;;12.12;100.00;102925.50;10184787;28;20073;-66
2022/04/28 19:45:19;;;;;;;13.90;2.35;;;;;;;12.23;100.00;102942.78;10177914;28;20544;-66
2022/04/28 19:50:16;;;;;;;10.38;2.70;;;;;;;12.23;100.00;102937.31;10169354;28;20085;-66
2022/04/28 19:55:13;;;;;;;12.50;2.78;;;;;;;12.11;100.00;102934.00;10171713;28;20050;-66
2022/04/28 20:00:10;;;;;;;14.25;4.57;;;;;;;12.08;100.00;102946.34;10158324;28;20054;-66
2022/04/28 20:05:07;;;;;;;20.10;5.57;;;;;;;11.63;100.00;102955.28;10174629;28;20041;-65
2022/04/28 20:10:06;;;;;;;12.50;2.72;;;;;;;11.55;100.00;102949.22;10198212;28;20046;-65
2022/04/28 20:15:04;;;;;;;10.93;2.38;;;;;;;11.61;100.00;102957.50;10178946;28;20660;-65
2022/04/28 20:20:01;;;;;;;10.98;2.25;;;;;;;11.45;100.00;102953.88;10189914;28;20101;-66
2022/04/28 20:24:59;;;;;;;14.30;4.30;;;;;;;11.56;100.00;102961.03;10173757;28;20161;-66
2022/04/28 20:29:55;;;;;;;19.23;4.60;;;;;;;11.40;100.00;102962.91;10180126;28;20050;-65
2022/04/28 20:34:52;;;;;;;10.18;2.97;;;;;;;11.28;100.00;102951.34;10172181;28;20518;-65
2022/04/28 20:39:48;;;;;;;11.73;2.60;;;;;;;11.25;100.00;102941.75;10169821;28;20101;-66
2022/04/28 20:44:46;;;;;;;13.52;3.03;;;;;;;11.05;100.00;102939.75;10171143;28;20569;-66
2022/04/28 20:49:43;;;;;;;13.93;2.97;;;;;;;10.92;100.00;102946.53;10168107;28;20130;-66
2022/04/28 20:54:39;;;;;;;10.02;3.08;;;;;;;10.98;100.00;102961.06;10169936;28;20042;-65
2022/04/28 20:59:36;;;;;;;10.20;2.67;;;;;;;10.73;100.00;102948.88;10159709;28;20104;-65
2022/04/28 21:04:33;;;;;;;12.13;2.20;;;;;;;10.72;100.00;102958.19;10157005;28;20143;-65
2022/04/28 21:09:31;;;;;;;14.30;4.13;;;;;;;10.48;100.00;102965.13;10156278;28;20065;-65
2022/04/28 21:14:27;;;;;;;16.30;4.07;;;;;;;10.60;100.00;102960.28;10167433;28;20057;-65
2022/04/28 21:19:24;;;;;;;15.20;3.40;;;;;;;10.63;100.00;102965.25;10196152;28;20152;-63
2022/04/28 21:24:21;;;;;;;13.25;3.05;;;;;;;10.60;100.00;102965.75;10176283;28;20085;-66
2022/04/28 21:29:17;;;;;;;11.70;2.72;;;;;;;10.47;100.00;102971.69;10186224;28;20050;-65
2022/04/28 21:34:14;;;;;;;13.15;2.60;;;;;;;10.37;100.00;102968.88;10164766;28;20076;-66
2022/04/28 21:39:11;;;;;;;11.57;2.83;;;;;;;10.36;100.00;102969.97;10174306;28;20055;-65
2022/04/28 21:44:08;;;;;;;12.15;2.72;;;;;;;10.20;100.00;102972.53;10163596;28;20045;-64
2022/04/28 21:49:06;;;;;;;8.90;2.58;;;;;;;10.17;100.00;102977.72;10172340;28;20058;-64
2022/04/28 21:54:03;;;;;;;14.48;3.42;;;;;;;10.10;100.00;102977.91;10162861;28;20053;-64
2022/04/28 21:58:59;;;;;;;12.38;2.75;;;;;;;9.99;100.00;102981.63;10159835;28;20113;-65
2022/04/28 22:14:26;;;;;;;11.32;2.75;;;;;;;9.93;100.00;102978.00;10155062;28;20130;-65
2022/04/28 22:19:24;;;;;;;16.05;4.13;;;;;;;9.76;100.00;102983.59;10154095;28;20054;-65
2022/04/28 22:24:21;;;;;;;13.25;2.92;;;;;;;9.59;100.00;102983.69;10164205;28;20070;-65
2022/04/28 22:29:17;;;;;;;11.68;3.08;;;;;;;9.54;100.00;102980.03;10193052;28;20069;-65
2022/04/28 22:34:14;;;;;;;12.45;3.00;;;;;;;9.48;100.00;102971.81;10196208;28;20416;-64
2022/04/28 22:39:11;;;;;;;11.20;3.47;;;;;;;9.43;100.00;102969.03;10193830;28;20121;-65
2022/04/28 22:44:07;;;;;;;10.85;3.80;;;;;;;9.37;100.00;102975.47;10179891;28;20528;-64
2022/04/28 22:49:05;;;;;;;12.95;3.35;;;;;;;9.28;100.00;102971.56;10193467;28;20041;-64
2022/04/28 22:54:02;;;;;;;11.70;3.63;;;;;;;9.19;100.00;102975.81;10192851;28;20125;-65
2022/04/28 22:58:59;;;;;;;16.35;3.60;;;;;;;9.26;100.00;102982.75;10193124;28;20078;-65
2022/04/28 23:03:55;;;;;;;9.98;3.22;;;;;;;9.26;100.00;102979.19;10163023;28;20108;-65
2022/04/28 23:08:51;;;;;;;13.60;3.17;;;;;;;9.22;100.00;102978.03;10192953;28;20084;-65
2022/04/28 23:13:49;;;;;;;16.42;3.83;;;;;;;9.18;100.00;102976.88;10161672;28;20038;-65
2022/04/28 23:18:45;;;;;;;14.10;3.50;;;;;;;8.98;100.00;102969.25;10181407;28;20062;-65
2022/04/28 23:23:42;;;;;;;15.98;4.00;;;;;;;8.85;100.00;102973.19;10158477;28;20038;-65
2022/04/28 23:28:39;;;;;;;19.67;4.50;;;;;;;8.76;100.00;102975.50;10179937;28;20046;-65
2022/04/28 23:33:35;;;;;;;15.57;3.83;;;;;;;8.56;100.00;102981.47;10157323;28;20085;-65
2022/04/28 23:38:32;;;;;;;10.75;3.95;;;;;;;8.46;100.00;102981.31;10183555;28;20077;-65